Página principal
METAR-TAF:

METAR-TAF

Aeroportos :

Ilha de São Vicente, Cabo Verde

Aeroporto de São Pedro

latitude: 16-49-59N, longitude: 25-03-25W, altura: 20 m

Observação actual do tempo

O boletim foi feito há 35 minutos, às 08:00 UTC
Vento 11 kt de es-nordeste
Temperatura 25°C
Humidade 74%
Pressão 1015 hPa
Visibilidade 10 km ou mais
Nuvens dispersasa uma altura de 1800 ft
Nuvens fragmentadasa uma altura de 9000 ft

METAR: GVSV 200800Z 07011KT 9999 SCT018 BKN090 25/20 Q1015 NOSIG

Hora: 07:35 (08:35 UTC)

Previsão

O boletim foi feito há 3 horas e 35 minutos, às 05:00 UTC
Previsão válida de 20 às 06 UTC a 21 às 12 UTC
Vento 16 kt de es-nordeste
Visibilidade 10 km ou mais
Nuvens dispersasa uma altura de 2000 ft

TAF: GVSV 200500Z 2006/2112 06016KT 9999 SCT020

Observações e previsões do tempo de mais de 4000 aeroportos (mensagens METAR e TAF).

As estações disponíveis são os pontos amarelos e vermelhos sobre o mapa.

Mova o rato sobre o mapa para ver o nome da estação.

Depois clique no ponto para visualizar as observações e previsões meteorológicas.

Para alterar o mapa : clique nos botões verdes com uma cruz preta para aumentar o zoom; no botão verde com uma pitada de zoom; ou nas setas verdes para mapas adjacentes.


METAR-TAF: